Time;durP1;ratioP1;P1;durP2;ratioP2;P2;SDS_P1;SDS_P2;PMS_P1;PMS_P2;Temp;Humidity;BMP_temperature;BMP_pressure;BME280_temperature;BME280_humidity;BME280_pressure;Samples;Min_cycle;Max_cycle;Signal;HPM_P1;HPM_P2
2023/09/14 00:02:24;;;;;;;16.70;14.90;;;;;;;18.72;85.23;100158.77;107743;276;106391;-54
2023/09/14 00:04:57;;;;;;;19.00;16.10;;;;;;;18.69;85.30;100156.08;107526;277;114100;-59
2023/09/14 00:07:35;;;;;;;17.80;15.90;;;;;;;18.64;85.44;100152.23;107711;276;95588;-58
2023/09/14 00:10:10;;;;;;;19.00;15.90;;;;;;;18.62;85.45;100153.90;107652;276;97744;-55
2023/09/14 00:12:49;;;;;;;17.80;15.80;;;;;;;18.62;85.52;100149.61;107625;276;119529;-56
2023/09/14 00:15:27;;;;;;;17.10;15.10;;;;;;;18.59;85.62;100150.55;107646;276;106416;-58
2023/09/14 00:18:06;;;;;;;18.00;16.10;;;;;;;18.59;85.88;100152.08;107676;276;113371;-53
2023/09/14 00:20:52;;;;;;;20.30;16.50;;;;;;;18.62;86.07;100151.36;107659;276;96497;-54
2023/09/14 00:23:26;;;;;;;17.80;15.90;;;;;;;18.64;86.18;100153.98;107658;276;98321;-59
2023/09/14 00:25:59;;;;;;;;;;;;;;;18.66;86.18;100150.13;107690;276;118499;-59
2023/09/14 00:28:33;;;;;;;19.50;15.40;;;;;;;18.65;86.18;100156.73;107713;276;105741;-54
2023/09/14 00:31:13;;;;;;;16.40;14.60;;;;;;;18.63;86.25;100153.95;107611;276;114500;-56
2023/09/14 00:33:47;;;;;;;16.70;14.80;;;;;;;18.61;86.24;100155.83;107704;276;95560;-58
2023/09/14 00:36:24;;;;;;;16.70;15.00;;;;;;;18.59;86.33;100154.38;107638;276;97719;-59
2023/09/14 00:39:09;;;;;;;17.30;14.60;;;;;;;18.55;86.42;100154.02;107637;276;120819;-56
2023/09/14 00:41:48;;;;;;;15.80;14.00;;;;;;;18.55;86.56;100155.23;107665;276;103891;-57
2023/09/14 00:44:25;;;;;;;15.60;14.00;;;;;;;18.56;86.91;100157.65;107650;276;113834;-57
2023/09/14 00:47:03;;;;;;;16.30;14.00;;;;;;;18.57;86.80;100158.84;107490;277;97576;-56
2023/09/14 00:49:42;;;;;;;15.60;14.00;;;;;;;18.61;86.94;100158.30;107645;276;97677;-53
2023/09/14 00:52:20;;;;;;;15.40;13.80;;;;;;;18.66;87.03;100156.25;107707;272;119473;-53
2023/09/14 00:54:58;;;;;;;16.80;13.40;;;;;;;18.70;86.85;100162.89;107722;275;104695;-58
2023/09/14 00:57:33;;;;;;;14.60;13.00;;;;;;;18.70;86.93;100161.95;107697;276;114318;-57
2023/09/14 01:00:13;;;;;;;15.00;13.00;;;;;;;18.69;86.92;100167.24;107674;276;96267;-53
2023/09/14 01:02:49;;;;;;;17.30;14.10;;;;;;;18.67;86.90;100166.45;107742;275;96245;-55
2023/09/14 01:05:23;;;;;;;17.20;14.50;;;;;;;18.66;87.12;100172.89;107629;276;119632;-53
2023/09/14 01:08:01;;;;;;;14.80;13.10;;;;;;;18.65;87.11;100172.87;107689;275;106093;-58
2023/09/14 01:10:39;;;;;;;15.00;13.20;;;;;;;18.63;87.18;100174.58;107649;275;114235;-57
2023/09/14 01:13:29;;;;;;;16.70;13.90;;;;;;;18.59;87.32;100176.05;107573;276;96824;-57
2023/09/14 01:16:15;;;;;;;15.30;13.30;;;;;;;18.64;87.25;100177.39;107642;275;97433;-57
2023/09/14 01:19:07;;;;;;;14.10;12.70;;;;;;;18.64;87.19;100178.55;107635;275;119241;-53
2023/09/14 01:22:06;;;;;;;14.80;13.20;;;;;;;18.67;87.30;100181.71;107654;276;105197;-54
2023/09/14 01:24:58;;;;;;;14.70;13.20;;;;;;;18.72;87.29;100181.35;107640;276;114622;-54
2023/09/14 01:27:36;;;;;;;16.90;13.80;;;;;;;18.72;87.37;100179.17;107672;276;95260;-54
2023/09/14 01:30:10;;;;;;;14.70;12.70;;;;;;;18.68;87.49;100181.36;107679;276;98439;-58
2023/09/14 01:32:45;;;;;;;16.20;13.30;;;;;;;18.66;87.53;100184.48;107724;268;119627;-56
2023/09/14 01:35:20;;;;;;;15.30;13.20;;;;;;;18.65;87.51;100184.85;107679;276;105756;-59
2023/09/14 01:38:00;;;;;;;17.00;13.30;;;;;;;18.67;87.49;100187.46;107773;276;113374;-56
2023/09/14 01:40:42;;;;;;;13.50;12.20;;;;;;;18.65;87.62;100186.45;107477;276;95824;-56
2023/09/14 01:43:21;;;;;;;13.90;12.50;;;;;;;18.62;87.37;100189.63;107718;276;97522;-56
2023/09/14 01:45:59;;;;;;;14.90;12.30;;;;;;;18.59;87.71;100198.00;107705;276;119645;-54
2023/09/14 01:48:35;;;;;;;15.00;13.30;;;;;;;18.60;87.71;100200.63;107679;276;104712;-56
2023/09/14 01:51:13;;;;;;;14.00;12.00;;;;;;;18.60;87.67;100204.58;107646;275;113555;-54
2023/09/14 01:53:48;;;;;;;14.50;12.50;;;;;;;18.58;87.60;100202.31;107443;276;96522;-56
2023/09/14 01:56:24;;;;;;;14.40;13.00;;;;;;;18.59;87.66;100204.23;107727;275;96445;-57
2023/09/14 01:59:03;;;;;;;13.80;12.40;;;;;;;18.56;87.64;100206.97;107612;276;119183;-56
2023/09/14 02:01:40;;;;;;;13.70;12.30;;;;;;;18.50;87.88;100204.93;107690;276;105739;-56
2023/09/14 02:04:22;;;;;;;13.40;11.80;;;;;;;18.45;87.93;100210.79;107639;276;113173;-60
2023/09/14 02:06:59;;;;;;;13.50;12.10;;;;;;;18.42;87.95;100206.83;107653;276;95818;-61
2023/09/14 02:09:33;;;;;;;16.00;12.30;;;;;;;18.43;87.99;100210.58;107704;275;98625;-56
2023/09/14 02:12:09;;;;;;;13.40;11.90;;;;;;;18.46;88.06;100212.66;107663;275;119801;-56
2023/09/14 02:14:48;;;;;;;12.50;11.30;;;;;;;18.46;88.05;100212.50;107720;276;104848;-59
2023/09/14 02:17:29;;;;;;;12.60;11.20;;;;;;;18.49;88.09;100216.83;107644;276;114098;-60
2023/09/14 02:20:07;;;;;;;13.40;11.50;;;;;;;18.50;88.31;100213.58;107646;276;95586;-60
2023/09/14 02:22:47;;;;;;;13.70;11.90;;;;;;;18.50;88.18;100219.27;107685;275;96945;-58
2023/09/14 02:25:32;;;;;;;13.60;11.80;;;;;;;18.53;88.35;100223.77;107728;275;120070;-56
2023/09/14 02:28:07;;;;;;;12.80;11.10;;;;;;;18.55;88.40;100219.48;107688;276;105044;-60
2023/09/14 02:30:54;;;;;;;13.10;11.70;;;;;;;18.55;88.42;100227.14;107641;275;114651;-61
2023/09/14 02:33:34;;;;;;;12.40;11.00;;;;;;;18.56;88.17;100227.88;107600;276;96827;-57
2023/09/14 02:36:14;;;;;;;13.60;11.30;;;;;;;18.59;88.17;100234.33;107651;276;97493;-57
2023/09/14 02:38:47;;;;;;;13.10;11.50;;;;;;;18.59;88.18;100243.91;107638;276;120077;-61
2023/09/14 02:41:22;;;;;;;14.20;10.90;;;;;;;18.57;88.18;100235.78;107671;276;105646;-61
2023/09/14 02:44:03;;;;;;;12.10;10.80;;;;;;;18.53;88.23;100237.27;107592;276;113705;-60
2023/09/14 02:46:39;;;;;;;12.20;11.00;;;;;;;18.51;88.19;100237.63;107603;276;96033;-60
2023/09/14 02:49:20;;;;;;;13.10;11.70;;;;;;;18.49;88.25;100238.51;107659;275;97856;-61
2023/09/14 02:51:57;;;;;;;12.80;10.30;;;;;;;18.53;88.15;100243.09;107668;275;120620;-61
2023/09/14 02:54:34;;;;;;;;;;;;;;;18.55;88.10;100248.86;107707;276;104128;-56
2023/09/14 02:57:06;;;;;;;13.40;11.40;;;;;;;18.51;88.32;100253.00;107673;275;112403;-56
2023/09/14 02:59:48;;;;;;;11.60;10.40;;;;;;;18.44;88.27;100256.34;107748;275;97441;-57
2023/09/14 03:02:20;;;;;;;12.30;11.00;;;;;;;18.42;88.46;100255.36;107675;275;98201;-56
2023/09/14 03:04:52;;;;;;;12.40;11.10;;;;;;;18.37;88.44;100262.48;107685;276;118018;-61
2023/09/14 03:07:26;;;;;;;12.00;10.40;;;;;;;18.40;88.57;100263.14;107707;275;105274;-62
2023/09/14 03:09:58;;;;;;;10.70;9.40;;;;;;;18.43;88.74;100270.09;107673;275;115320;-61
2023/09/14 03:12:34;;;;;;;11.00;9.70;;;;;;;18.39;88.70;100265.92;107651;275;97999;-61
2023/09/14 03:15:10;;;;;;;10.90;9.90;;;;;;;18.40;88.85;100273.27;107686;276;97620;-61
2023/09/14 03:17:47;;;;;;;10.90;9.80;;;;;;;18.44;88.69;100275.92;107675;276;118773;-59
2023/09/14 03:20:21;;;;;;;10.40;9.40;;;;;;;18.45;88.68;100280.74;107651;276;105672;-60
2023/09/14 03:22:54;;;;;;;9.70;8.70;;;;;;;18.47;88.79;100280.80;107682;276;112230;-62
2023/09/14 03:25:34;;;;;;;12.40;10.00;;;;;;;18.46;88.73;100282.08;107653;276;96561;-61
2023/09/14 03:28:08;;;;;;;9.50;8.50;;;;;;;18.45;88.73;100283.82;107705;275;98348;-61
2023/09/14 03:30:47;;;;;;;10.40;9.30;;;;;;;18.48;88.76;100286.04;107650;276;119242;-61
2023/09/14 03:33:28;;;;;;;10.70;9.10;;;;;;;18.48;88.75;100288.32;107477;276;105431;-55
2023/09/14 03:36:06;;;;;;;9.80;8.10;;;;;;;18.46;88.67;100289.05;107712;275;114629;-57
2023/09/14 03:38:46;;;;;;;11.00;8.90;;;;;;;18.47;88.60;100293.34;107698;276;96446;-57
2023/09/14 03:41:34;;;;;;;9.40;8.20;;;;;;;18.49;88.62;100298.98;107698;276;96971;-57
2023/09/14 03:44:14;;;;;;;9.50;7.70;;;;;;;18.48;88.62;100300.39;107676;276;120841;-57
2023/09/14 03:46:52;;;;;;;9.20;8.10;;;;;;;18.51;88.60;100306.73;107702;276;104411;-56
2023/09/14 03:49:37;;;;;;;8.50;7.70;;;;;;;18.52;88.73;100308.49;107702;275;113257;-60
2023/09/14 03:52:09;;;;;;;9.20;7.30;;;;;;;18.52;88.46;100311.50;107686;276;96204;-60
2023/09/14 03:54:52;;;;;;;8.40;7.40;;;;;;;18.50;88.61;100317.45;107690;276;97470;-56
2023/09/14 03:57:29;;;;;;;7.80;7.00;;;;;;;18.50;88.72;100320.17;107007;276;686652;-56
2023/09/14 04:00:11;;;;;;;7.50;6.80;;;;;;;18.50;88.74;100327.05;107642;276;105475;-56
2023/09/14 04:02:47;;;;;;;9.10;7.10;;;;;;;18.49;88.80;100332.18;107691;276;114801;-56
2023/09/14 04:05:18;;;;;;;;;;;;;;;18.47;88.90;100333.60;107690;276;96400;-57
2023/09/14 04:07:52;;;;;;;8.10;7.20;;;;;;;18.46;88.99;100338.63;107701;276;97938;-57
2023/09/14 04:10:28;;;;;;;7.50;6.60;;;;;;;18.46;88.85;100340.57;107698;276;119620;-57
2023/09/14 04:13:35;;;;;;;7.60;6.20;;;;;;;18.45;88.79;100347.70;107534;276;105457;-61
2023/09/14 04:16:17;;;;;;;8.10;6.40;;;;;;;18.45;88.91;100347.45;107668;275;114417;-60
2023/09/14 04:18:52;;;;;;;6.90;5.80;;;;;;;18.45;88.94;100353.46;107700;275;96974;-57
2023/09/14 04:21:26;;;;;;;6.20;5.60;;;;;;;18.45;88.76;100355.80;107724;276;97069;-57
2023/09/14 04:24:02;;;;;;;7.60;6.00;;;;;;;18.43;88.87;100357.57;107711;275;119588;-61
2023/09/14 04:26:41;;;;;;;7.60;5.60;;;;;;;18.46;88.92;100359.72;107689;275;104759;-61
2023/09/14 04:29:24;;;;;;;8.00;6.10;;;;;;;18.49;88.78;100362.77;107539;276;115096;-60
2023/09/14 04:32:04;;;;;;;8.70;5.80;;;;;;;18.43;88.93;100363.05;107654;276;96189;-61
2023/09/14 04:34:42;;;;;;;7.10;5.30;;;;;;;18.42;89.01;100367.41;107689;276;98308;-62
2023/09/14 04:37:17;;;;;;;9.70;5.60;;;;;;;18.45;88.90;100368.23;107653;276;118139;-61
2023/09/14 04:39:49;;;;;;;6.80;5.70;;;;;;;18.44;88.76;100369.11;107673;275;105668;-60
2023/09/14 04:42:32;;;;;;;5.80;5.20;;;;;;;18.39;88.86;100367.89;107650;276;114058;-60
2023/09/14 04:45:13;;;;;;;7.20;4.90;;;;;;;18.39;88.99;100376.48;107588;276;96346;-60
2023/09/14 04:47:50;;;;;;;9.70;5.30;;;;;;;18.39;88.97;100379.16;107680;276;97364;-60
2023/09/14 04:50:29;;;;;;;6.10;5.10;;;;;;;18.39;88.90;100388.30;107474;276;118656;-62
2023/09/14 04:53:00;;;;;;;5.50;4.90;;;;;;;18.37;89.13;100387.46;107452;276;106209;-60
2023/09/14 04:55:33;;;;;;;9.40;5.00;;;;;;;18.36;89.08;100395.83;107651;276;114808;-60
2023/09/14 04:58:09;;;;;;;6.90;4.50;;;;;;;18.39;89.04;100395.46;107668;275;96200;-56
2023/09/14 05:00:47;;;;;;;6.40;4.50;;;;;;;18.38;89.09;100400.48;107488;277;97928;-60
2023/09/14 05:03:20;;;;;;;5.50;4.30;;;;;;;18.37;89.10;100407.13;107436;276;119667;-54
2023/09/14 05:05:59;;;;;;;5.60;4.50;;;;;;;18.39;89.18;100415.20;107626;276;104716;-57
2023/09/14 05:08:30;;;;;;;6.30;4.50;;;;;;;18.40;89.12;100421.68;107657;276;114794;-61
2023/09/14 05:11:07;;;;;;;6.80;4.00;;;;;;;18.45;89.13;100421.73;107707;276;96725;-61
2023/09/14 05:13:41;;;;;;;5.50;4.20;;;;;;;18.48;89.00;100424.55;107702;275;98143;-56
2023/09/14 05:16:22;;;;;;;5.20;4.00;;;;;;;18.49;88.94;100425.68;107684;275;117528;-57
2023/09/14 05:18:55;;;;;;;5.00;3.90;;;;;;;18.44;88.95;100430.25;107752;276;104780;-57
2023/09/14 05:21:31;;;;;;;4.00;3.30;;;;;;;18.44;88.84;100429.48;107694;276;114237;-56
2023/09/14 05:24:13;;;;;;;5.30;3.90;;;;;;;18.44;88.83;100433.92;107720;276;96733;-56
2023/09/14 05:26:47;;;;;;;5.40;3.30;;;;;;;18.41;88.95;100434.84;107701;275;97258;-55
2023/09/14 05:29:26;;;;;;;;;;;;;;;18.43;89.02;100434.56;107642;275;119727;-56
2023/09/14 05:31:58;;;;;;;5.10;3.20;;;;;;;18.40;89.11;100439.45;107678;276;104801;-56
2023/09/14 05:34:32;;;;;;;5.20;3.20;;;;;;;18.41;89.03;100439.42;107701;275;114102;-61
2023/09/14 05:37:14;;;;;;;5.30;3.10;;;;;;;18.44;88.96;100440.59;107725;275;96056;-60
2023/09/14 05:40:00;;;;;;;4.50;3.30;;;;;;;18.38;89.05;100443.41;107715;276;97729;-57
2023/09/14 05:42:40;;;;;;;4.30;3.10;;;;;;;18.41;88.81;100451.35;107662;276;119896;-57
2023/09/14 05:45:16;;;;;;;5.00;3.30;;;;;;;18.41;89.00;100453.33;107706;275;106813;-56
2023/09/14 05:47:55;;;;;;;6.70;2.70;;;;;;;18.42;88.99;100458.11;107678;275;113947;-62
2023/09/14 05:50:27;;;;;;;3.90;2.70;;;;;;;18.43;88.81;100459.30;107688;275;95300;-56
2023/09/14 05:53:00;;;;;;;3.50;2.90;;;;;;;18.45;88.66;100459.45;107726;276;98251;-63
2023/09/14 05:55:41;;;;;;;3.70;2.60;;;;;;;18.45;88.63;100463.01;107716;276;119491;-61
2023/09/14 05:58:16;;;;;;;3.50;2.50;;;;;;;18.46;88.63;100463.41;107663;276;105773;-56
2023/09/14 06:00:52;;;;;;;3.90;2.90;;;;;;;18.50;88.60;100462.87;107526;276;115203;-54
2023/09/14 06:03:32;;;;;;;5.10;3.10;;;;;;;18.48;88.64;100466.43;107707;276;95846;-55
2023/09/14 06:06:11;;;;;;;4.30;2.60;;;;;;;18.58;88.70;100464.70;107508;276;97197;-55
2023/09/14 06:08:47;;;;;;;3.40;2.70;;;;;;;18.76;88.76;100465.80;107682;276;118411;-57
2023/09/14 06:11:26;;;;;;;4.10;2.60;;;;;;;18.96;88.73;100465.63;107663;275;105255;-58
2023/09/14 06:14:02;;;;;;;5.20;2.70;;;;;;;19.21;88.71;100468.98;107713;276;114370;-57
2023/09/14 06:16:42;;;;;;;4.70;2.90;;;;;;;19.52;88.42;100470.05;107636;275;97176;-59
2023/09/14 06:19:15;;;;;;;3.50;2.30;;;;;;;19.77;87.92;100474.73;107670;276;98063;-60
2023/09/14 06:21:54;;;;;;;4.50;2.70;;;;;;;19.84;87.65;100476.04;107681;275;119947;-59
2023/09/14 06:24:32;;;;;;;4.20;2.60;;;;;;;19.89;87.10;100478.98;107662;276;106377;-59
2023/09/14 06:27:06;;;;;;;4.20;2.70;;;;;;;19.89;86.87;100479.04;107637;275;114467;-59
2023/09/14 06:29:43;;;;;;;3.60;2.40;;;;;;;19.99;86.46;100479.80;107683;276;92848;-59
2023/09/14 06:32:19;;;;;;;3.90;2.40;;;;;;;20.04;86.32;100474.70;107690;275;98509;-59
2023/09/14 06:34:54;;;;;;;5.60;2.50;;;;;;;20.21;86.22;100477.73;107750;276;119701;-54
2023/09/14 06:37:32;;;;;;;3.00;2.20;;;;;;;20.50;85.94;100480.83;107671;276;105303;-54
2023/09/14 06:40:08;;;;;;;5.30;2.20;;;;;;;20.74;85.62;100481.38;107717;275;114043;-56
2023/09/14 06:42:47;;;;;;;2.80;2.10;;;;;;;20.83;84.97;100485.77;107470;276;98806;-58
2023/09/14 06:45:23;;;;;;;2.50;2.20;;;;;;;20.87;84.70;100489.73;107696;275;97412;-54
2023/09/14 06:48:05;;;;;;;3.40;2.40;;;;;;;20.84;84.18;100494.48;107654;275;119896;-57
2023/09/14 06:50:47;;;;;;;3.20;2.20;;;;;;;20.78;83.89;100490.83;107669;276;104974;-59
2023/09/14 06:53:24;;;;;;;3.10;2.20;;;;;;;20.72;83.61;100493.05;107682;276;112575;-55
2023/09/14 06:55:55;;;;;;;5.10;2.20;;;;;;;20.59;83.46;100491.11;107685;275;93985;-53
2023/09/14 06:58:30;;;;;;;4.20;2.20;;;;;;;20.57;83.29;100490.92;107646;276;97790;-57
2023/09/14 07:01:05;;;;;;;3.10;2.10;;;;;;;20.66;83.07;100491.48;107638;276;117820;-56
2023/09/14 07:03:41;;;;;;;3.20;2.10;;;;;;;20.83;82.96;100497.16;107647;272;103393;-57
2023/09/14 07:06:15;;;;;;;3.00;2.10;;;;;;;20.95;82.79;100496.98;107661;275;115071;-57
2023/09/14 07:08:55;;;;;;;3.20;2.40;;;;;;;21.04;82.28;100499.20;107646;276;95425;-60
2023/09/14 07:11:26;;;;;;;2.80;2.00;;;;;;;21.02;81.98;100504.21;107745;276;98329;-60
2023/09/14 07:14:04;;;;;;;3.60;2.30;;;;;;;21.06;82.02;100504.34;107688;276;119831;-57
2023/09/14 07:16:37;;;;;;;2.40;2.00;;;;;;;21.31;81.73;100500.92;107710;276;106814;-55
2023/09/14 07:19:08;;;;;;;2.40;2.00;;;;;;;21.68;81.86;100500.61;107721;276;113795;-58
2023/09/14 07:21:48;;;;;;;4.60;2.00;;;;;;;22.00;81.15;100503.99;107648;276;97254;-58
2023/09/14 07:24:26;;;;;;;3.40;1.90;;;;;;;22.22;80.63;100499.88;107701;276;96302;-59
2023/09/14 07:27:00;;;;;;;3.70;2.00;;;;;;;22.39;79.94;100502.54;107666;276;118178;-59
2023/09/14 07:29:35;;;;;;;3.40;1.90;;;;;;;22.54;79.40;100500.56;107665;275;107422;-55
2023/09/14 07:32:13;;;;;;;2.30;1.70;;;;;;;22.58;78.94;100502.64;107681;275;113224;-55
2023/09/14 07:34:50;;;;;;;3.20;1.80;;;;;;;22.54;78.57;100502.59;107717;276;94317;-60
2023/09/14 07:37:28;;;;;;;3.40;1.70;;;;;;;22.59;77.88;100497.89;107690;275;97997;-58
2023/09/14 07:40:05;;;;;;;2.40;1.50;;;;;;;22.77;77.54;100495.92;107654;275;119351;-59
2023/09/14 07:42:40;;;;;;;2.40;1.40;;;;;;;22.86;77.06;100501.94;107712;275;104787;-60
2023/09/14 07:45:13;;;;;;;2.70;1.40;;;;;;;22.66;76.33;100500.60;107663;276;114478;-54
2023/09/14 07:47:51;;;;;;;3.20;1.30;;;;;;;22.71;75.79;100505.38;107628;276;93583;-58
2023/09/14 07:50:29;;;;;;;2.80;1.40;;;;;;;22.45;74.98;100509.20;107675;275;97939;-57
2023/09/14 07:53:07;;;;;;;1.80;1.30;;;;;;;22.17;74.73;100513.16;107701;275;120942;-57
2023/09/14 07:55:40;;;;;;;2.40;1.80;;;;;;;22.26;75.49;100514.55;107632;276;104984;-56
2023/09/14 07:58:13;;;;;;;1.80;1.10;;;;;;;22.88;75.78;100514.77;107605;275;114239;-57
2023/09/14 08:00:48;;;;;;;2.80;1.10;;;;;;;23.74;75.32;100511.80;107448;276;97298;-59
2023/09/14 08:03:23;;;;;;;1.70;1.00;;;;;;;25.02;74.69;100509.94;107512;276;97445;-58
2023/09/14 08:06:02;;;;;;;1.60;1.20;;;;;;;25.94;72.05;100511.77;107698;276;120610;-58
2023/09/14 08:08:42;;;;;;;1.50;0.80;;;;;;;25.73;69.66;100508.86;107740;276;104798;-61
2023/09/14 08:11:20;;;;;;;1.20;1.00;;;;;;;24.93;68.44;100515.02;107694;276;114666;-57
2023/09/14 08:13:55;;;;;;;1.90;1.00;;;;;;;24.30;68.23;100516.20;107742;276;94188;-59
2023/09/14 08:16:36;;;;;;;2.10;0.80;;;;;;;24.64;68.47;100518.92;107750;276;98388;-58
2023/09/14 08:19:12;;;;;;;2.40;0.80;;;;;;;24.71;66.91;100518.64;107621;276;119964;-59
2023/09/14 08:21:47;;;;;;;2.00;1.10;;;;;;;24.21;66.41;100522.86;107684;276;105546;-58
2023/09/14 08:24:19;;;;;;;1.20;0.80;;;;;;;23.75;66.83;100523.86;107675;276;114935;-60
2023/09/14 08:26:51;;;;;;;2.00;0.80;;;;;;;24.49;67.69;100522.64;107436;276;92908;-59
2023/09/14 08:29:27;;;;;;;1.30;0.90;;;;;;;25.47;66.93;100519.84;107690;275;97938;-60
2023/09/14 08:32:01;;;;;;;1.50;0.80;;;;;;;25.94;65.85;100519.14;107631;276;120132;-60
2023/09/14 08:34:38;;;;;;;;;;;;;;;25.72;64.12;100520.42;107701;275;105592;-59
2023/09/14 08:37:12;;;;;;;1.40;0.90;;;;;;;24.97;63.37;100530.09;107624;276;113684;-59
2023/09/14 08:39:45;;;;;;;1.40;0.90;;;;;;;24.49;63.37;100531.45;107702;276;94534;-60
2023/09/14 08:42:30;;;;;;;1.10;0.80;;;;;;;24.39;63.87;100536.25;107688;276;97550;-60
2023/09/14 08:45:03;;;;;;;1.10;0.80;;;;;;;25.61;63.61;100537.36;107715;276;121826;-58
2023/09/14 08:47:40;;;;;;;1.30;0.80;;;;;;;26.28;62.38;100536.29;107667;276;106076;-59
2023/09/14 08:50:20;;;;;;;1.80;0.60;;;;;;;26.50;61.40;100536.23;107681;276;114478;-60
2023/09/14 08:52:55;;;;;;;2.30;0.90;;;;;;;25.92;60.55;100544.63;107735;276;94344;-59
2023/09/14 08:55:35;;;;;;;3.00;0.70;;;;;;;25.34;60.07;100548.55;107731;276;97029;-59
2023/09/14 08:58:18;;;;;;;2.10;0.80;;;;;;;25.45;60.01;100549.95;107731;276;121343;-59
2023/09/14 09:00:53;;;;;;;1.50;0.90;;;;;;;25.62;58.99;100547.90;107551;276;103075;-59
2023/09/14 09:03:34;;;;;;;0.90;0.70;;;;;;;25.92;58.95;100552.10;107724;275;114590;-59
2023/09/14 09:06:13;;;;;;;1.60;0.60;;;;;;;25.79;58.30;100557.27;107646;275;95061;-59
2023/09/14 09:08:48;;;;;;;1.30;0.70;;;;;;;25.22;58.22;100557.06;107656;276;96206;-56
2023/09/14 09:11:32;;;;;;;1.80;0.90;;;;;;;24.93;58.40;100559.58;107636;276;119850;-58
2023/09/14 09:14:06;;;;;;;1.50;0.90;;;;;;;24.68;58.87;100560.92;107661;275;105283;-58
2023/09/14 09:16:38;;;;;;;1.30;1.00;;;;;;;24.53;58.77;100561.71;107607;275;114382;-58
2023/09/14 09:19:18;;;;;;;1.90;1.00;;;;;;;24.32;59.21;100561.38;107678;275;93208;-59
2023/09/14 09:22:02;;;;;;;1.20;0.80;;;;;;;24.48;59.34;100563.15;107672;276;97076;-60
2023/09/14 09:24:41;;;;;;;1.10;0.80;;;;;;;24.25;59.39;100566.23;107615;275;120965;-59
2023/09/14 09:27:31;;;;;;;1.00;0.90;;;;;;;23.87;59.53;100564.11;107681;276;105383;-57
2023/09/14 09:30:04;;;;;;;2.40;0.90;;;;;;;23.63;60.11;100568.96;107707;275;114441;-56
2023/09/14 09:32:40;;;;;;;1.40;1.00;;;;;;;23.51;60.55;100571.17;107635;276;92777;-57
2023/09/14 09:35:28;;;;;;;1.40;0.90;;;;;;;23.37;61.10;100570.33;107705;276;98052;-57
2023/09/14 09:38:14;;;;;;;1.50;1.10;;;;;;;23.45;61.48;100568.94;107692;275;121519;-58
2023/09/14 09:40:54;;;;;;;2.20;1.10;;;;;;;23.65;61.49;100561.95;107543;277;102895;-58
2023/09/14 09:43:34;;;;;;;1.30;1.10;;;;;;;23.66;61.52;100557.48;107468;276;114629;-57
2023/09/14 09:46:15;;;;;;;1.60;1.20;;;;;;;23.50;61.37;100566.85;107539;276;93736;-60
2023/09/14 09:48:50;;;;;;;2.80;1.00;;;;;;;23.21;61.50;100567.16;107700;276;99164;-56
2023/09/14 09:51:24;;;;;;;2.00;1.10;;;;;;;23.08;61.53;100569.68;107665;276;121078;-57
2023/09/14 09:54:09;;;;;;;1.40;1.00;;;;;;;22.98;61.63;100573.25;107676;276;103777;-59
2023/09/14 09:56:43;;;;;;;1.40;1.20;;;;;;;23.01;61.86;100569.46;107708;276;114612;-58
2023/09/14 09:59:25;;;;;;;1.70;1.00;;;;;;;23.04;62.03;100573.77;107621;276;93393;-60
2023/09/14 10:02:06;;;;;;;2.20;1.10;;;;;;;23.02;62.05;100570.57;107681;275;97162;-58
2023/09/14 10:04:53;;;;;;;1.70;1.20;;;;;;;22.99;61.98;100574.19;107672;275;119104;-58
2023/09/14 10:07:40;;;;;;;2.40;1.00;;;;;;;22.88;62.17;100582.23;107700;276;105682;-58
2023/09/14 10:10:14;;;;;;;1.60;0.90;;;;;;;22.57;62.07;100586.00;107648;276;115023;-58
2023/09/14 10:12:46;;;;;;;1.90;0.90;;;;;;;22.45;62.22;100589.64;107657;275;95333;-62
2023/09/14 10:15:20;;;;;;;1.90;1.00;;;;;;;22.34;62.50;100593.06;107667;276;96842;-58
2023/09/14 10:17:55;;;;;;;1.30;1.00;;;;;;;22.12;62.64;100593.90;107629;275;120789;-60
2023/09/14 10:20:39;;;;;;;1.10;0.80;;;;;;;22.09;62.87;100594.48;107718;276;104525;-59
2023/09/14 10:23:19;;;;;;;1.80;1.00;;;;;;;22.09;63.12;100598.60;107677;275;115060;-59
2023/09/14 10:26:04;;;;;;;2.70;1.30;;;;;;;22.23;63.57;100598.73;107717;275;93857;-59
2023/09/14 10:28:41;;;;;;;1.70;1.20;;;;;;;22.41;63.73;100601.27;107757;276;97936;-56
2023/09/14 10:31:23;;;;;;;1.80;1.30;;;;;;;22.47;63.82;100599.84;107729;276;120295;-56
2023/09/14 10:34:01;;;;;;;2.50;1.20;;;;;;;22.62;63.92;100604.05;107716;276;104192;-56
2023/09/14 10:36:39;;;;;;;1.80;1.30;;;;;;;22.92;63.97;100605.80;107626;276;114638;-57
2023/09/14 10:39:27;;;;;;;2.80;1.60;;;;;;;23.16;63.74;100606.21;107495;275;93170;-58
2023/09/14 10:42:05;;;;;;;2.90;1.30;;;;;;;23.36;63.56;100601.87;107653;276;97573;-58
2023/09/14 10:44:39;;;;;;;2.70;1.30;;;;;;;23.43;63.32;100600.20;107655;276;120003;-57
2023/09/14 10:47:17;;;;;;;2.90;1.30;;;;;;;23.40;63.13;100594.66;107699;276;103784;-55
2023/09/14 10:49:49;;;;;;;3.00;1.20;;;;;;;23.35;63.08;100598.48;107688;276;115693;-59
2023/09/14 10:52:37;;;;;;;1.80;1.20;;;;;;;23.23;63.02;100602.83;107700;276;94835;-59
2023/09/14 10:55:19;;;;;;;1.70;1.20;;;;;;;23.06;63.07;100603.45;107707;276;96797;-58
2023/09/14 10:57:58;;;;;;;2.20;1.00;;;;;;;23.05;63.27;100613.14;107693;276;119684;-55
2023/09/14 11:00:42;;;;;;;2.00;1.20;;;;;;;23.01;63.15;100615.05;107637;276;104312;-55
2023/09/14 11:03:16;;;;;;;1.80;1.10;;;;;;;23.06;63.05;100615.46;107676;276;114712;-56
2023/09/14 11:05:53;;;;;;;1.20;0.90;;;;;;;23.05;62.70;100613.27;107691;275;95499;-56
2023/09/14 11:09:05;;;;;;;1.20;0.90;;;;;;;23.11;62.70;100606.84;107719;276;98154;-55
2023/09/14 11:11:57;;;;;;;1.20;0.70;;;;;;;23.25;62.57;100609.35;107660;276;121225;-54
2023/09/14 11:14:32;;;;;;;1.10;0.90;;;;;;;23.34;62.31;100611.33;107675;275;105950;-57
2023/09/14 11:17:24;;;;;;;1.70;0.70;;;;;;;23.45;62.06;100616.45;107694;276;114592;-58
2023/09/14 11:20:30;;;;;;;2.10;0.90;;;;;;;23.56;61.95;100614.61;107684;276;94159;-58
2023/09/14 11:23:05;;;;;;;2.70;0.90;;;;;;;23.61;61.51;100619.82;107716;276;97591;-58
2023/09/14 11:25:42;;;;;;;0.80;0.80;;;;;;;23.63;61.42;100620.27;107776;276;120688;-60
2023/09/14 11:28:22;;;;;;;1.20;0.90;;;;;;;23.59;61.31;100620.25;107712;276;104915;-56
2023/09/14 11:30:56;;;;;;;1.30;0.70;;;;;;;23.63;61.47;100623.52;107661;275;114406;-57
2023/09/14 11:33:32;;;;;;;1.40;0.90;;;;;;;23.71;61.44;100619.79;107678;275;93776;-58
2023/09/14 11:36:12;;;;;;;2.80;1.10;;;;;;;23.76;61.13;100617.88;107693;275;95397;-59
2023/09/14 11:38:48;;;;;;;1.70;0.90;;;;;;;23.70;61.02;100617.98;107693;275;121092;-55
2023/09/14 11:41:56;;;;;;;1.30;0.80;;;;;;;23.54;61.18;100619.02;107710;275;106123;-58
2023/09/14 11:44:32;;;;;;;1.90;0.70;;;;;;;23.27;61.06;100622.54;107653;275;113786;-56
2023/09/14 11:47:14;;;;;;;1.60;0.80;;;;;;;22.96;61.04;100626.52;107661;275;95010;-57
2023/09/14 11:49:49;;;;;;;2.00;0.80;;;;;;;22.69;61.14;100631.28;107710;276;96506;-55
2023/09/14 11:52:35;;;;;;;2.90;1.10;;;;;;;22.48;61.33;100632.06;107672;276;120148;-56
2023/09/14 11:55:15;;;;;;;3.10;0.90;;;;;;;22.35;61.73;100637.38;107649;276;104386;-60
2023/09/14 11:57:51;;;;;;;1.40;0.70;;;;;;;22.31;61.98;100640.56;106971;276;790004;-56
2023/09/14 12:00:24;;;;;;;0.80;0.70;;;;;;;22.24;62.33;100639.00;107705;275;93391;-59
2023/09/14 12:03:03;;;;;;;0.90;0.60;;;;;;;22.30;62.37;100639.11;107712;276;97558;-57
2023/09/14 12:05:37;;;;;;;2.10;0.80;;;;;;;22.32;62.52;100644.70;107708;275;121259;-57
2023/09/14 12:08:26;;;;;;;1.60;0.90;;;;;;;22.39;62.60;100643.05;107767;276;104637;-62